createdAt,value
2023-02-07T00:01:20.585Z,6.13
2023-02-07T00:04:09.159Z,6.47
2023-02-07T00:06:57.680Z,6.27
2023-02-07T00:09:46.245Z,6.93
2023-02-07T00:12:35.401Z,6.87
2023-02-07T00:15:24.302Z,6.93
2023-02-07T00:18:14.142Z,6.67
2023-02-07T00:21:03.852Z,6.47
2023-02-07T00:23:53.206Z,6.37
2023-02-07T00:26:41.749Z,6.30
2023-02-07T00:29:30.230Z,5.97
2023-02-07T00:32:18.740Z,7.20
2023-02-07T00:35:09.858Z,6.90
2023-02-07T00:37:58.486Z,6.70
2023-02-07T00:40:46.936Z,7.37
2023-02-07T00:43:36.351Z,6.90
2023-02-07T00:46:25.360Z,7.07
2023-02-07T00:49:14.150Z,6.57
2023-02-07T00:52:04.072Z,6.87
2023-02-07T00:54:52.525Z,7.60
2023-02-07T00:57:40.916Z,6.73
2023-02-07T01:00:29.446Z,7.10
2023-02-07T01:03:18.904Z,6.67
2023-02-07T01:06:08.341Z,7.87
2023-02-07T01:08:59.761Z,8.00
2023-02-07T01:11:48.247Z,8.07
2023-02-07T01:14:36.731Z,8.13
2023-02-07T01:17:25.207Z,8.50
2023-02-07T01:20:14.127Z,7.53
2023-02-07T01:23:02.768Z,7.70
2023-02-07T01:25:52.626Z,8.77
2023-02-07T01:28:41.386Z,7.60
2023-02-07T01:31:30.469Z,7.97
2023-02-07T01:34:19.023Z,8.37
2023-02-07T01:37:07.487Z,7.80
2023-02-07T01:39:56.042Z,8.30
2023-02-07T01:42:45.900Z,8.77
2023-02-07T01:45:36.767Z,9.33
2023-02-07T01:48:32.768Z,8.20
2023-02-07T01:51:21.236Z,7.97
2023-02-07T01:54:12.815Z,7.70
2023-02-07T01:57:07.063Z,8.50
2023-02-07T01:59:58.830Z,8.70
2023-02-07T02:02:47.560Z,7.97
2023-02-07T02:05:38.223Z,9.00
2023-02-07T02:08:27.113Z,7.57
2023-02-07T02:11:31.408Z,8.07
2023-02-07T02:14:36.679Z,7.87
2023-02-07T02:17:34.691Z,7.60
2023-02-07T02:20:59.330Z,7.90
2023-02-07T02:24:05.565Z,7.63
2023-02-07T02:27:04.333Z,7.33
2023-02-07T02:30:14.161Z,7.40
2023-02-07T02:33:38.027Z,8.80
2023-02-07T02:36:35.266Z,8.90
2023-02-07T02:39:33.534Z,6.60
2023-02-07T02:42:28.122Z,7.93
2023-02-07T02:45:20.329Z,7.57
2023-02-07T02:48:11.646Z,8.07
2023-02-07T02:51:01.638Z,7.90
2023-02-07T02:53:54.181Z,8.23
2023-02-07T02:57:05.434Z,8.13
2023-02-07T03:00:25.239Z,7.77
2023-02-07T03:03:52.473Z,8.10
2023-02-07T03:06:55.746Z,8.43
2023-02-07T03:09:52.507Z,8.10
2023-02-07T03:12:49.028Z,8.30
2023-02-07T03:15:49.019Z,8.07
2023-02-07T03:18:45.333Z,7.90
2023-02-07T03:21:38.638Z,8.37
2023-02-07T03:24:31.956Z,8.43
2023-02-07T03:27:23.312Z,7.87
2023-02-07T03:30:16.867Z,8.40
2023-02-07T03:33:11.763Z,8.90
2023-02-07T03:36:09.563Z,8.83
2023-02-07T03:38:58.370Z,8.33
2023-02-07T03:41:53.589Z,8.30
2023-02-07T03:44:44.808Z,8.90
2023-02-07T03:47:33.367Z,8.87
2023-02-07T03:50:21.869Z,9.33
2023-02-07T03:53:10.401Z,8.57
2023-02-07T03:55:58.891Z,8.27
2023-02-07T03:58:48.711Z,9.27
2023-02-07T04:01:40.801Z,8.87
2023-02-07T04:04:29.318Z,9.40
2023-02-07T04:07:17.855Z,8.53
2023-02-07T04:10:07.398Z,9.40
2023-02-07T04:12:55.928Z,8.73
2023-02-07T04:15:45.902Z,8.50
2023-02-07T04:18:34.466Z,8.50
2023-02-07T04:21:22.910Z,8.40
2023-02-07T04:24:11.401Z,8.20
2023-02-07T04:26:59.931Z,9.40
2023-02-07T04:29:48.596Z,11.03
2023-02-07T04:32:38.377Z,9.33
2023-02-07T04:35:27.012Z,10.03
2023-02-07T04:38:15.475Z,9.53
2023-02-07T04:41:06.483Z,9.30
2023-02-07T04:43:55.023Z,9.20
2023-02-07T04:46:43.585Z,8.60
2023-02-07T04:49:34.564Z,9.47
2023-02-07T04:52:23.210Z,10.00
2023-02-07T04:55:11.945Z,9.20
2023-02-07T04:58:00.424Z,10.40
2023-02-07T05:00:49.188Z,10.53
2023-02-07T05:03:37.667Z,9.43
2023-02-07T05:06:27.491Z,9.20
2023-02-07T05:09:15.945Z,9.33
2023-02-07T05:12:04.490Z,9.10
2023-02-07T05:14:52.917Z,9.40
2023-02-07T05:17:41.607Z,10.00
2023-02-07T05:20:30.072Z,9.63
2023-02-07T05:23:19.899Z,10.57
2023-02-07T05:26:08.546Z,9.20
2023-02-07T05:28:57.041Z,10.43
2023-02-07T05:32:03.192Z,9.93
2023-02-07T05:34:52.492Z,9.00
2023-02-07T05:37:40.929Z,9.10
2023-02-07T05:40:30.827Z,10.37
2023-02-07T05:43:19.269Z,9.67
2023-02-07T05:46:07.764Z,9.70
2023-02-07T05:48:56.328Z,9.43
2023-02-07T05:51:44.747Z,9.23
2023-02-07T05:54:33.490Z,9.67
2023-02-07T05:57:23.330Z,8.97
2023-02-07T06:00:14.651Z,11.00
2023-02-07T06:03:03.283Z,9.33
2023-02-07T06:05:51.755Z,9.80
2023-02-07T06:08:40.209Z,8.20
2023-02-07T06:11:28.757Z,9.73
2023-02-07T06:14:18.590Z,10.30
2023-02-07T06:17:07.109Z,11.57
2023-02-07T06:19:55.635Z,9.33
2023-02-07T06:22:44.145Z,10.40
2023-02-07T06:25:32.698Z,8.93
2023-02-07T06:28:21.306Z,9.10
2023-02-07T06:31:11.508Z,9.57
2023-02-07T06:34:00.042Z,10.00
2023-02-07T06:36:48.492Z,9.50
2023-02-07T06:39:36.913Z,9.23
2023-02-07T06:42:25.444Z,9.27
2023-02-07T06:45:13.893Z,9.20
2023-02-07T06:48:04.111Z,9.20
2023-02-07T06:50:52.583Z,9.27
2023-02-07T06:53:41.051Z,8.30
2023-02-07T06:56:29.647Z,8.13
2023-02-07T06:59:18.330Z,8.40
2023-02-07T07:02:06.825Z,8.23
2023-02-07T07:04:56.723Z,9.97
2023-02-07T07:07:45.796Z,9.27
2023-02-07T07:10:34.675Z,8.77
2023-02-07T07:13:23.129Z,8.50
2023-02-07T07:16:11.717Z,9.50
2023-02-07T07:19:00.197Z,10.03
2023-02-07T07:21:50.749Z,10.10
2023-02-07T07:24:39.281Z,8.90
2023-02-07T07:27:27.754Z,9.13
2023-02-07T07:30:16.370Z,8.90
2023-02-07T07:33:04.979Z,8.57
2023-02-07T07:35:58.109Z,8.63
2023-02-07T07:38:48.010Z,10.40
2023-02-07T07:41:36.883Z,14.53
2023-02-07T07:44:25.354Z,16.50
2023-02-07T07:47:13.887Z,12.53
2023-02-07T07:50:02.417Z,9.83
2023-02-07T07:52:50.871Z,9.40
2023-02-07T07:55:40.756Z,8.97
2023-02-07T07:58:29.453Z,9.03
2023-02-07T08:01:18.004Z,7.90
2023-02-07T08:04:06.614Z,9.40
2023-02-07T08:06:55.604Z,10.20
2023-02-07T08:09:44.115Z,8.57
2023-02-07T08:12:34.007Z,8.63
2023-02-07T08:15:22.493Z,10.30
2023-02-07T08:18:10.988Z,8.87
2023-02-07T08:20:59.540Z,8.87
2023-02-07T08:23:48.150Z,8.43
2023-02-07T08:26:36.685Z,11.07
2023-02-07T08:29:26.649Z,8.40
2023-02-07T08:32:15.229Z,8.53
2023-02-07T08:35:03.679Z,9.37
2023-02-07T08:37:52.554Z,9.00
2023-02-07T08:40:41.272Z,7.53
2023-02-07T08:43:29.907Z,8.37
2023-02-07T08:46:19.904Z,8.17
2023-02-07T08:49:08.424Z,7.77
2023-02-07T08:51:56.940Z,8.33
2023-02-07T08:54:45.401Z,7.43
2023-02-07T08:57:33.918Z,7.67
2023-02-07T09:00:22.429Z,8.80
2023-02-07T09:03:13.632Z,14.37
2023-02-07T09:06:03.120Z,10.33
2023-02-07T09:08:51.744Z,7.97
2023-02-07T09:11:40.237Z,17.60
2023-02-07T09:14:28.898Z,44.63
2023-02-07T09:17:17.434Z,13.97
2023-02-07T09:20:08.019Z,7.97
2023-02-07T09:23:13.851Z,7.23
2023-02-07T09:26:03.963Z,8.70
2023-02-07T09:28:52.385Z,7.53
2023-02-07T09:31:41.224Z,7.33
2023-02-07T09:34:29.760Z,8.10
2023-02-07T09:37:19.909Z,7.77
2023-02-07T09:40:09.429Z,6.77
2023-02-07T09:42:59.968Z,9.20
2023-02-07T09:45:55.660Z,6.97
2023-02-07T09:48:49.653Z,7.13
2023-02-07T09:51:40.065Z,6.70
2023-02-07T09:54:36.426Z,7.33
2023-02-07T09:57:29.883Z,6.73
2023-02-07T10:00:23.518Z,7.13
2023-02-07T10:03:18.023Z,6.70
2023-02-07T10:06:18.830Z,6.40
2023-02-07T10:09:15.831Z,7.83
2023-02-07T10:12:12.852Z,6.70
2023-02-07T10:15:27.323Z,6.40
2023-02-07T10:18:33.708Z,6.80
2023-02-07T10:21:32.981Z,6.57
2023-02-07T10:24:34.660Z,7.47
2023-02-07T10:27:30.818Z,7.87
2023-02-07T10:30:27.411Z,9.30
2023-02-07T10:33:18.488Z,7.73
2023-02-07T10:36:14.799Z,8.37
2023-02-07T10:39:09.706Z,8.70
2023-02-07T10:41:59.412Z,7.57
2023-02-07T10:44:49.381Z,7.20
2023-02-07T10:47:41.057Z,7.30
2023-02-07T10:50:30.871Z,8.33
2023-02-07T10:53:54.341Z,7.57
2023-02-07T10:56:45.913Z,8.53
2023-02-07T10:59:45.380Z,7.27
2023-02-07T11:02:50.038Z,6.73
2023-02-07T11:05:51.928Z,6.77
2023-02-07T11:08:41.142Z,5.80
2023-02-07T11:11:33.294Z,5.37
2023-02-07T11:14:28.253Z,5.27
2023-02-07T11:17:22.509Z,5.27
2023-02-07T11:20:21.558Z,6.00
2023-02-07T11:23:15.170Z,6.77
2023-02-07T11:26:05.487Z,5.20
2023-02-07T11:28:55.953Z,5.00
2023-02-07T11:31:47.302Z,4.87
2023-02-07T11:34:54.506Z,5.53
2023-02-07T11:37:50.264Z,5.47
2023-02-07T11:40:40.399Z,6.90
2023-02-07T11:43:28.982Z,6.67
2023-02-07T11:46:17.510Z,6.43
2023-02-07T11:49:09.184Z,5.70
2023-02-07T11:52:01.149Z,6.30
2023-02-07T11:54:54.279Z,7.30
2023-02-07T11:57:42.888Z,5.73
2023-02-07T12:00:37.196Z,7.17
2023-02-07T12:03:28.693Z,6.40
2023-02-07T12:06:21.148Z,7.07
2023-02-07T12:09:23.771Z,6.10
2023-02-07T12:12:19.365Z,5.20
2023-02-07T12:15:13.423Z,6.28
2023-02-07T12:18:06.734Z,9.60
2023-02-07T12:20:59.030Z,7.05
2023-02-07T12:23:54.775Z,6.82
2023-02-07T12:26:48.808Z,5.57
2023-02-07T12:29:53.030Z,5.97
2023-02-07T12:32:50.152Z,5.45
2023-02-07T12:35:55.456Z,6.15
2023-02-07T12:38:52.185Z,6.30
2023-02-07T12:41:45.621Z,7.22
2023-02-07T12:44:36.851Z,6.78
2023-02-07T12:47:39.793Z,6.90
2023-02-07T12:50:42.450Z,6.72
2023-02-07T12:53:43.940Z,6.75
2023-02-07T12:56:50.654Z,7.82
2023-02-07T12:59:50.518Z,8.13
2023-02-07T13:02:55.203Z,6.97
2023-02-07T13:06:01.326Z,7.07
2023-02-07T13:08:57.382Z,6.78
2023-02-07T13:11:55.669Z,6.18
2023-02-07T13:14:55.502Z,6.47
2023-02-07T13:17:55.664Z,6.63
2023-02-07T13:20:55.381Z,6.95
2023-02-07T13:23:47.115Z,5.85
2023-02-07T13:26:36.876Z,6.45
2023-02-07T13:29:26.557Z,6.07
2023-02-07T13:32:21.526Z,6.70
2023-02-07T13:35:18.913Z,6.43
2023-02-07T13:38:16.991Z,6.88
2023-02-07T13:41:10.803Z,5.78
2023-02-07T13:44:10.110Z,6.90
2023-02-07T13:47:13.752Z,7.28
2023-02-07T13:50:12.183Z,6.22
2023-02-07T13:53:08.067Z,6.95
2023-02-07T13:56:01.442Z,7.28
2023-02-07T13:59:13.413Z,6.47
2023-02-07T14:02:01.971Z,5.57
2023-02-07T14:04:53.770Z,6.28
2023-02-07T14:07:42.223Z,5.90
2023-02-07T14:10:45.684Z,6.55
2023-02-07T14:13:35.800Z,5.82
2023-02-07T14:16:49.024Z,6.20
2023-02-07T14:19:52.866Z,6.40
2023-02-07T14:23:13.699Z,5.97
2023-02-07T14:26:56.872Z,7.00
2023-02-07T14:30:17.223Z,5.97
2023-02-07T14:33:14.052Z,5.50
2023-02-07T14:36:21.726Z,5.65
2023-02-07T14:39:31.187Z,6.28
2023-02-07T14:42:23.064Z,6.10
2023-02-07T14:45:20.266Z,5.95
2023-02-07T14:48:33.943Z,5.82
2023-02-07T14:51:25.060Z,5.37
2023-02-07T14:54:22.822Z,6.00
2023-02-07T14:57:26.452Z,6.70
2023-02-07T15:00:34.553Z,5.23
2023-02-07T15:03:23.402Z,6.20
2023-02-07T15:06:30.710Z,6.07
2023-02-07T15:09:26.461Z,5.47
2023-02-07T15:12:27.314Z,6.87
2023-02-07T15:15:23.014Z,7.87
2023-02-07T15:18:15.454Z,15.97
2023-02-07T15:21:04.860Z,9.10
2023-02-07T15:23:58.773Z,6.90
2023-02-07T15:26:51.763Z,6.37
2023-02-07T15:29:40.287Z,6.60
2023-02-07T15:32:33.064Z,6.00
2023-02-07T15:35:26.745Z,6.73
2023-02-07T15:38:18.047Z,7.07
2023-02-07T15:41:07.605Z,7.10
2023-02-07T15:44:00.846Z,6.30
2023-02-07T15:46:51.276Z,6.20
2023-02-07T15:49:42.750Z,7.60
2023-02-07T15:52:35.118Z,7.00
2023-02-07T15:55:30.759Z,7.97
2023-02-07T15:58:24.685Z,6.97
2023-02-07T16:01:18.434Z,7.30
2023-02-07T16:04:08.499Z,6.63
2023-02-07T16:07:01.613Z,7.27
2023-02-07T16:09:50.369Z,7.20
2023-02-07T16:12:49.789Z,6.93
2023-02-07T16:15:40.356Z,7.20
2023-02-07T16:18:39.526Z,6.80
2023-02-07T16:21:28.698Z,7.13
2023-02-07T16:24:20.836Z,6.80
2023-02-07T16:27:15.085Z,8.37
2023-02-07T16:30:03.931Z,8.13
2023-02-07T16:32:52.420Z,9.47
2023-02-07T16:35:41.008Z,11.93
2023-02-07T16:38:29.423Z,13.43
2023-02-07T16:41:28.290Z,13.37
2023-02-07T16:44:20.211Z,13.00
2023-02-07T16:47:09.034Z,11.57
2023-02-07T16:49:57.601Z,12.60
2023-02-07T16:52:46.633Z,11.23
2023-02-07T16:55:38.498Z,10.27
2023-02-07T16:58:30.390Z,10.00
2023-02-07T17:01:20.863Z,10.30
2023-02-07T17:04:09.378Z,9.60
2023-02-07T17:06:57.858Z,9.13
2023-02-07T17:09:49.373Z,9.27
2023-02-07T17:12:37.860Z,9.53
2023-02-07T17:15:27.731Z,9.20
2023-02-07T17:18:16.169Z,10.07
2023-02-07T17:21:04.822Z,9.27
2023-02-07T17:23:53.360Z,9.53
2023-02-07T17:26:44.603Z,9.23
2023-02-07T17:29:33.339Z,9.07
2023-02-07T17:32:23.154Z,8.53
2023-02-07T17:35:11.716Z,8.97
2023-02-07T17:38:01.250Z,9.90
2023-02-07T17:40:49.983Z,9.63
2023-02-07T17:43:39.390Z,9.50
2023-02-07T17:46:28.797Z,9.33
2023-02-07T17:49:18.774Z,9.40
2023-02-07T17:52:09.142Z,8.70
2023-02-07T17:54:57.687Z,8.73
2023-02-07T17:57:46.185Z,9.30
2023-02-07T18:00:37.415Z,9.30
2023-02-07T18:03:26.501Z,9.27
2023-02-07T18:06:17.638Z,9.37
2023-02-07T18:09:06.152Z,9.00
2023-02-07T18:11:54.907Z,9.90
2023-02-07T18:14:43.318Z,9.97
2023-02-07T18:17:31.973Z,8.90
2023-02-07T18:20:23.696Z,10.53
2023-02-07T18:23:15.058Z,9.83
2023-02-07T18:26:04.579Z,10.37
2023-02-07T18:28:53.983Z,9.97
2023-02-07T18:31:42.498Z,10.00
2023-02-07T18:34:31.041Z,10.00
2023-02-07T18:37:21.158Z,11.47
2023-02-07T18:40:12.932Z,9.33
2023-02-07T18:43:01.782Z,10.20
2023-02-07T18:45:50.366Z,10.67
2023-02-07T18:48:39.523Z,9.77
2023-02-07T18:51:28.091Z,10.43
2023-02-07T18:54:17.045Z,9.23
2023-02-07T18:57:07.514Z,8.53
2023-02-07T18:59:56.083Z,10.40
2023-02-07T19:02:44.599Z,9.23
2023-02-07T19:05:33.110Z,10.60
2023-02-07T19:08:21.612Z,11.43
2023-02-07T19:11:10.368Z,10.77
2023-02-07T19:14:00.203Z,13.67
2023-02-07T19:16:49.538Z,13.07
2023-02-07T19:19:38.017Z,14.90
2023-02-07T19:22:35.251Z,13.30
2023-02-07T19:25:24.729Z,13.83
2023-02-07T19:28:13.280Z,12.27
2023-02-07T19:31:05.462Z,13.67
2023-02-07T19:33:54.352Z,17.27
2023-02-07T19:36:43.390Z,16.37
2023-02-07T19:39:32.156Z,13.73
2023-02-07T19:42:20.709Z,13.70
2023-02-07T19:45:09.986Z,12.90
2023-02-07T19:47:59.868Z,14.50
2023-02-07T19:50:48.357Z,13.00
2023-02-07T19:53:37.417Z,13.13
2023-02-07T19:56:27.615Z,14.73
2023-02-07T19:59:16.124Z,13.40
2023-02-07T20:02:04.815Z,13.90
2023-02-07T20:04:54.889Z,13.20
2023-02-07T20:07:43.401Z,13.47
2023-02-07T20:10:31.805Z,12.10
2023-02-07T20:13:20.809Z,12.27
2023-02-07T20:16:12.189Z,11.63
2023-02-07T20:19:00.910Z,13.13
2023-02-07T20:21:50.737Z,12.57
2023-02-07T20:24:39.211Z,12.30
2023-02-07T20:27:27.767Z,12.67
2023-02-07T20:30:16.323Z,11.83
2023-02-07T20:33:04.852Z,12.50
2023-02-07T20:35:53.649Z,14.18
2023-02-07T20:38:44.976Z,12.13
2023-02-07T20:41:40.939Z,12.63
2023-02-07T20:44:30.098Z,13.03
2023-02-07T20:47:18.776Z,12.63
2023-02-07T20:50:08.292Z,12.83
2023-02-07T20:52:56.762Z,12.80
2023-02-07T20:55:46.732Z,13.27
2023-02-07T20:58:35.433Z,13.10
2023-02-07T21:01:26.657Z,11.63
2023-02-07T21:04:15.373Z,12.30
2023-02-07T21:07:03.839Z,12.00
2023-02-07T21:09:52.607Z,9.97
2023-02-07T21:12:42.488Z,12.30
2023-02-07T21:15:30.953Z,11.23
2023-02-07T21:18:19.358Z,11.73
2023-02-07T21:21:09.301Z,13.03
2023-02-07T21:23:58.191Z,13.50
2023-02-07T21:26:48.778Z,13.10
2023-02-07T21:29:38.683Z,14.30
2023-02-07T21:32:27.201Z,12.10
2023-02-07T21:35:15.972Z,13.83
2023-02-07T21:38:04.489Z,11.87
2023-02-07T21:40:53.176Z,10.53
2023-02-07T21:43:42.169Z,10.80
2023-02-07T21:46:34.263Z,11.10
2023-02-07T21:49:22.681Z,10.87
2023-02-07T21:52:12.502Z,10.10
2023-02-07T21:55:01.016Z,10.30
2023-02-07T21:57:49.457Z,10.27
2023-02-07T22:00:38.145Z,9.73
2023-02-07T22:03:28.185Z,10.07
2023-02-07T22:06:18.064Z,9.80
2023-02-07T22:09:06.631Z,8.97
2023-02-07T22:11:55.494Z,9.33
2023-02-07T22:14:43.914Z,9.60
2023-02-07T22:17:32.360Z,9.67
2023-02-07T22:20:22.222Z,9.17
2023-02-07T22:23:10.738Z,9.93
2023-02-07T22:25:59.313Z,9.67
2023-02-07T22:28:48.199Z,9.17
2023-02-07T22:31:41.584Z,9.07
2023-02-07T22:34:30.092Z,9.70
2023-02-07T22:37:20.002Z,9.50
2023-02-07T22:40:09.107Z,9.67
2023-02-07T22:42:57.588Z,9.00
2023-02-07T22:45:47.011Z,8.43
2023-02-07T22:48:36.752Z,9.77
2023-02-07T22:51:27.116Z,9.03
2023-02-07T22:54:19.182Z,8.97
2023-02-07T22:57:09.060Z,9.40
2023-02-07T23:00:00.697Z,8.50
2023-02-07T23:02:49.219Z,8.20
2023-02-07T23:05:38.572Z,8.87
2023-02-07T23:08:27.040Z,8.57
2023-02-07T23:11:18.347Z,8.03
2023-02-07T23:14:07.548Z,8.27
2023-02-07T23:16:56.039Z,8.50
2023-02-07T23:19:44.474Z,8.80
2023-02-07T23:22:32.890Z,8.90
2023-02-07T23:25:21.525Z,10.50
2023-02-07T23:28:11.918Z,9.93
2023-02-07T23:31:00.453Z,9.87
2023-02-07T23:33:49.340Z,9.97
2023-02-07T23:36:38.671Z,8.90
2023-02-07T23:39:27.117Z,9.17
2023-02-07T23:42:15.559Z,9.37
2023-02-07T23:45:05.776Z,9.13
2023-02-07T23:47:54.215Z,8.70
2023-02-07T23:50:42.742Z,8.43
2023-02-07T23:53:32.800Z,9.80
2023-02-07T23:56:23.525Z,8.47
2023-02-07T23:59:13.322Z,9.43
